Time;durP1;ratioP1;P1;durP2;ratioP2;P2;SDS_P1;SDS_P2;PMS_P1;PMS_P2;Temp;Humidity;BMP_temperature;BMP_pressure;BME280_temperature;BME280_humidity;BME280_pressure;Samples;Min_cycle;Max_cycle;Signal;HPM_P1;HPM_P2
2021/05/14 00:02:21;;;;;;;3.22;2.27;;;;;;;13.54;53.05;99062.08;1692069;82;25772;-77
2021/05/14 00:04:48;;;;;;;4.15;3.00;;;;;;;13.51;53.24;99061.24;1711249;82;26118;-76
2021/05/14 00:07:16;;;;;;;5.55;2.62;;;;;;;13.48;53.29;99060.89;1719974;82;25643;-76
2021/05/14 00:09:43;;;;;;;4.47;2.55;;;;;;;13.43;53.46;99053.55;1660119;83;27494;-75
2021/05/14 00:12:10;;;;;;;4.92;2.87;;;;;;;13.36;53.46;99059.62;1685587;82;25732;-76
2021/05/14 00:14:37;;;;;;;5.22;3.02;;;;;;;13.32;54.10;99059.00;1696594;82;25706;-75
2021/05/14 00:17:04;;;;;;;5.20;3.37;;;;;;;13.26;54.53;99053.25;1719393;82;26425;-75
2021/05/14 00:19:31;;;;;;;4.85;2.95;;;;;;;13.19;54.71;99053.92;1630884;83;25805;-76
2021/05/14 00:21:58;;;;;;;7.80;3.27;;;;;;;13.13;54.74;99046.27;1687120;82;27479;-76
2021/05/14 00:24:25;;;;;;;4.05;3.20;;;;;;;13.08;54.87;99055.61;1687104;83;26389;-76
2021/05/14 00:26:52;;;;;;;7.08;3.33;;;;;;;13.02;55.25;99056.53;1724828;82;25771;-76
2021/05/14 00:29:19;;;;;;;6.85;3.20;;;;;;;12.95;55.72;99059.88;1675292;82;26344;-75
2021/05/14 00:31:46;;;;;;;4.72;3.33;;;;;;;12.89;56.15;99060.33;1699192;82;26428;-77
2021/05/14 00:34:13;;;;;;;4.90;3.12;;;;;;;12.78;56.73;99056.31;1718191;81;27376;-76
2021/05/14 00:36:40;;;;;;;8.23;3.52;;;;;;;12.70;57.25;99058.83;1767394;80;25607;-77
2021/05/14 00:39:07;;;;;;;5.90;2.90;;;;;;;12.62;57.64;99058.38;1675158;83;25648;-76
2021/05/14 00:41:34;;;;;;;4.50;3.33;;;;;;;12.60;57.94;99060.49;1689544;82;26163;-76
2021/05/14 00:44:30;;;;;;;4.53;3.00;;;;;;;12.57;57.97;99067.70;1688230;82;25800;-77
2021/05/14 00:46:59;;;;;;;4.50;3.20;;;;;;;12.52;58.37;99062.20;1693908;83;27581;-75
2021/05/14 00:49:27;;;;;;;12.50;3.80;;;;;;;12.42;58.81;99056.63;1713453;81;25625;-76
2021/05/14 00:51:57;;;;;;;7.72;3.67;;;;;;;12.38;59.07;99057.64;1684907;81;25266;-76
2021/05/14 00:54:25;;;;;;;5.25;3.15;;;;;;;12.35;58.99;99060.78;1700512;81;26004;-75
2021/05/14 00:56:52;;;;;;;5.10;3.75;;;;;;;12.31;58.67;99055.59;1737095;81;25657;-75
2021/05/14 00:59:20;;;;;;;3.22;2.90;;;;;;;12.26;58.68;99049.58;1660726;82;27409;-75
2021/05/14 01:01:47;;;;;;;6.17;3.67;;;;;;;12.28;58.58;99052.02;1696360;81;25632;-76
2021/05/14 01:04:14;;;;;;;5.72;3.52;;;;;;;12.27;58.48;99049.86;1734348;81;25694;-76
2021/05/14 01:06:41;;;;;;;6.22;2.72;;;;;;;12.24;58.40;99053.55;1741016;81;26487;-76
2021/05/14 01:09:08;;;;;;;5.08;3.50;;;;;;;12.22;58.46;99055.13;1658464;83;25890;-77
2021/05/14 01:11:36;;;;;;;6.22;3.20;;;;;;;12.22;58.54;99051.11;1687705;82;27460;-76
2021/05/14 01:14:03;;;;;;;5.15;3.15;;;;;;;12.19;58.47;99051.56;1722484;81;26063;-77
2021/05/14 01:16:30;;;;;;;6.67;3.42;;;;;;;12.15;58.57;99050.41;1765914;80;25677;-76
2021/05/14 01:18:57;;;;;;;7.42;3.90;;;;;;;12.12;58.66;99046.86;1730296;81;25642;-76
2021/05/14 01:21:24;;;;;;;4.30;3.02;;;;;;;12.12;58.67;99050.06;1690171;81;25862;-76
2021/05/14 01:23:52;;;;;;;3.90;3.40;;;;;;;12.10;58.80;99050.83;1682179;82;27534;-76
2021/05/14 01:26:22;;;;;;;4.42;3.85;;;;;;;12.07;58.92;99044.57;1690278;83;25724;-76
2021/05/14 01:28:49;;;;;;;3.90;3.40;;;;;;;12.03;59.37;99048.77;1673109;82;35394;-76
2021/05/14 01:31:17;;;;;;;6.78;3.33;;;;;;;12.01;59.53;99052.22;1649960;81;26360;-75
2021/05/14 01:33:45;;;;;;;4.15;3.17;;;;;;;11.98;59.75;99049.47;1715634;82;25620;-77
2021/05/14 01:36:13;;;;;;;6.83;4.08;;;;;;;11.92;59.80;99057.12;1716165;81;26923;-77
2021/05/14 01:38:40;;;;;;;4.17;3.60;;;;;;;11.85;60.02;99053.72;1687221;81;25783;-74
2021/05/14 01:41:07;;;;;;;6.45;4.12;;;;;;;11.82;60.21;99053.38;1706594;81;25703;-77
2021/05/14 01:43:35;;;;;;;13.60;3.80;;;;;;;11.80;60.31;99056.81;1714625;81;25911;-77
2021/05/14 01:46:04;;;;;;;6.17;3.00;;;;;;;11.79;60.50;99057.33;1738628;81;25697;-75
2021/05/14 01:48:32;;;;;;;4.22;3.20;;;;;;;11.76;60.58;99062.36;1703871;83;27463;-77
2021/05/14 01:51:09;;;;;;;7.12;3.40;;;;;;;11.69;61.05;99061.13;1695260;80;25790;-76
2021/05/14 01:53:36;;;;;;;11.10;3.65;;;;;;;11.66;61.26;99061.54;1698607;81;25627;-75
2021/05/14 01:56:03;;;;;;;6.20;4.10;;;;;;;11.63;61.35;99061.47;1759746;80;25763;-75
2021/05/14 01:58:30;;;;;;;5.22;3.98;;;;;;;11.62;61.77;99060.38;1684624;83;26014;-76
2021/05/14 02:00:57;;;;;;;10.38;3.27;;;;;;;11.62;61.78;99057.69;1678365;81;27995;-76
2021/05/14 02:03:25;;;;;;;8.73;3.40;;;;;;;11.64;62.01;99059.61;1727961;81;25864;-76
2021/05/14 02:05:52;;;;;;;5.47;3.85;;;;;;;11.63;62.11;99056.11;1745345;80;25581;-77
2021/05/14 02:08:19;;;;;;;6.87;3.65;;;;;;;11.63;62.11;99052.09;1674792;83;26093;-76
2021/05/14 02:10:46;;;;;;;4.37;3.30;;;;;;;11.65;62.26;99058.58;1712237;81;25760;-77
2021/05/14 02:13:13;;;;;;;5.35;3.67;;;;;;;11.68;62.04;99062.16;1693126;83;27088;-76
2021/05/14 02:15:40;;;;;;;4.30;3.50;;;;;;;11.70;61.96;99065.97;1717291;81;25691;-77
2021/05/14 02:18:07;;;;;;;3.90;3.50;;;;;;;11.71;61.77;99061.70;1710915;82;25728;-76
2021/05/14 02:20:35;;;;;;;6.90;3.72;;;;;;;11.74;61.90;99061.22;1667327;82;25666;-77
2021/05/14 02:23:02;;;;;;;6.03;3.90;;;;;;;11.78;61.79;99055.72;1737290;81;25566;-75
2021/05/14 02:25:29;;;;;;;4.00;3.47;;;;;;;11.81;61.86;99052.55;1706987;81;28058;-76
2021/05/14 02:27:56;;;;;;;4.50;3.58;;;;;;;11.82;61.83;99052.86;1684966;81;25740;-75
2021/05/14 02:30:24;;;;;;;5.85;3.58;;;;;;;11.81;61.85;99050.39;1693519;80;25683;-75
2021/05/14 02:32:51;;;;;;;3.87;3.42;;;;;;;11.79;61.68;99053.31;1675762;83;26047;-76
2021/05/14 02:35:18;;;;;;;4.22;3.65;;;;;;;11.76;61.80;99051.08;1674871;83;25764;-75
2021/05/14 02:37:45;;;;;;;7.03;3.87;;;;;;;11.77;61.92;99054.59;1675406;82;28139;-77
2021/05/14 02:40:14;;;;;;;7.53;4.05;;;;;;;11.75;62.07;99054.00;1719743;81;26453;-76
2021/05/14 02:42:41;;;;;;;7.05;4.03;;;;;;;11.77;62.13;99054.59;1728713;81;26348;-76
2021/05/14 02:45:11;;;;;;;6.22;3.75;;;;;;;11.77;62.23;99054.59;1681722;83;25677;-77
2021/05/14 02:47:38;;;;;;;5.53;3.70;;;;;;;11.78;62.17;99052.21;1682930;84;25699;-76
2021/05/14 02:50:07;;;;;;;7.53;4.05;;;;;;;11.80;62.28;99047.43;1689041;81;28175;-76
2021/05/14 02:52:34;;;;;;;4.85;4.42;;;;;;;11.83;62.24;99055.00;1737194;81;25789;-76
2021/05/14 02:55:01;;;;;;;10.63;4.42;;;;;;;11.87;62.33;99054.85;1696125;83;25846;-76
2021/05/14 02:57:28;;;;;;;5.10;4.50;;;;;;;11.89;62.56;99052.75;1694071;81;26158;-78
2021/05/14 02:59:55;;;;;;;6.42;4.28;;;;;;;11.90;62.60;99055.71;1676194;81;25743;-77
2021/05/14 03:02:22;;;;;;;5.28;3.98;;;;;;;11.92;62.53;99058.45;1723973;80;27215;-76
2021/05/14 03:04:49;;;;;;;8.50;3.75;;;;;;;11.95;62.86;99058.52;1715682;81;25693;-76
2021/05/14 03:07:16;;;;;;;9.53;4.33;;;;;;;11.97;62.94;99061.27;1668547;84;25675;-76
2021/05/14 03:09:43;;;;;;;6.33;4.80;;;;;;;11.99;62.91;99061.85;1663429;82;25335;-76
2021/05/14 03:12:10;;;;;;;5.95;5.30;;;;;;;11.99;63.04;99057.83;1720324;82;25540;-76
2021/05/14 03:14:37;;;;;;;5.58;4.80;;;;;;;11.99;63.23;99055.66;1696021;83;27466;-76
2021/05/14 03:17:04;;;;;;;8.00;4.80;;;;;;;11.98;63.38;99057.52;1688667;83;25693;-76
2021/05/14 03:19:31;;;;;;;8.10;4.47;;;;;;;11.99;63.41;99055.14;1668196;82;25702;-75
2021/05/14 03:21:58;;;;;;;7.58;5.62;;;;;;;12.01;63.40;99053.56;1708655;81;26549;-76
2021/05/14 03:24:25;;;;;;;8.73;4.85;;;;;;;12.04;63.67;99057.92;1719873;80;25961;-76
2021/05/14 03:26:53;;;;;;;5.25;4.75;;;;;;;12.00;63.48;99054.59;1699254;82;27465;-76
2021/05/14 03:29:21;;;;;;;7.72;4.90;;;;;;;11.98;63.55;99057.52;1675578;81;26456;-77
2021/05/14 03:31:48;;;;;;;11.73;4.60;;;;;;;12.00;63.50;99058.11;1720718;81;25688;-76
2021/05/14 03:34:15;;;;;;;6.20;4.87;;;;;;;12.02;63.70;99059.20;1726121;81;25637;-76
2021/05/14 03:36:42;;;;;;;5.10;4.60;;;;;;;12.05;63.67;99060.09;1700988;80;26371;-76
2021/05/14 03:39:10;;;;;;;12.43;5.53;;;;;;;12.06;63.54;99058.51;1680577;82;27424;-75
2021/05/14 03:44:14;;;;;;;9.75;5.50;;;;;;;12.13;63.76;99070.47;1717195;81;25625;-76
2021/05/14 03:46:41;;;;;;;6.22;5.30;;;;;;;12.14;63.62;99076.14;1682567;82;25766;-75
2021/05/14 03:49:08;;;;;;;7.20;5.17;;;;;;;12.15;63.63;99070.53;1675655;82;25870;-75
2021/05/14 03:51:38;;;;;;;6.72;5.47;;;;;;;12.15;63.70;99078.59;1714401;82;27410;-75
2021/05/14 03:54:06;;;;;;;11.95;5.97;;;;;;;12.16;63.74;99080.23;1662991;83;26445;-75
2021/05/14 03:56:33;;;;;;;12.00;8.90;;;;;;;12.21;63.83;99086.25;1694060;82;25725;-78
2021/05/14 03:59:00;;;;;;;10.65;7.75;;;;;;;12.24;64.11;99083.91;1698747;82;26366;-75
2021/05/14 04:01:28;;;;;;;11.28;7.17;;;;;;;12.26;64.26;99080.45;1715694;82;25910;-76
2021/05/14 04:03:55;;;;;;;7.78;6.10;;;;;;;12.28;64.71;99085.06;1689954;83;27403;-76
2021/05/14 04:06:24;;;;;;;7.08;4.90;;;;;;;12.25;64.95;99083.39;1692565;83;26358;-76
2021/05/14 04:08:51;;;;;;;7.78;4.83;;;;;;;12.20;64.88;99082.74;1668413;83;25702;-76
2021/05/14 04:11:41;;;;;;;6.45;5.20;;;;;;;12.18;64.87;99089.39;1716793;82;25753;-75
2021/05/14 04:16:35;;;;;;;8.60;5.67;;;;;;;12.22;64.88;99093.23;1708539;81;27411;-76
2021/05/14 04:19:02;;;;;;;8.35;5.00;;;;;;;12.25;64.98;99097.60;1708408;82;25968;-76
2021/05/14 04:21:29;;;;;;;7.47;4.95;;;;;;;12.29;65.17;99104.69;1746880;81;25294;-77
2021/05/14 04:23:56;;;;;;;9.38;6.20;;;;;;;12.32;64.87;99096.97;1690655;82;25763;-76
2021/05/14 04:26:23;;;;;;;7.80;5.70;;;;;;;12.34;64.87;99100.75;1696636;80;25267;-77
2021/05/14 04:28:50;;;;;;;13.18;6.22;;;;;;;12.38;64.80;99097.91;1700115;82;28013;-75
2021/05/14 04:31:17;;;;;;;15.38;6.33;;;;;;;12.44;64.87;99101.00;1738256;81;25676;-76
2021/05/14 04:33:44;;;;;;;10.80;5.72;;;;;;;12.51;65.14;99103.56;1696147;83;25354;-77
2021/05/14 04:36:11;;;;;;;11.33;6.85;;;;;;;12.55;65.29;99104.20;1687920;81;25639;-76
2021/05/14 04:38:38;;;;;;;9.40;6.97;;;;;;;12.59;65.29;99102.67;1697319;81;25716;-75
2021/05/14 04:41:05;;;;;;;11.12;7.45;;;;;;;12.64;65.22;99108.14;1723991;81;27515;-75
2021/05/14 04:43:32;;;;;;;9.03;6.75;;;;;;;12.71;64.95;99105.33;1697022;83;25995;-76
2021/05/14 04:45:59;;;;;;;7.92;5.05;;;;;;;12.73;65.45;99102.70;1681161;83;25607;-77
2021/05/14 04:48:26;;;;;;;8.43;6.25;;;;;;;12.71;65.71;99108.84;1693536;81;26183;-76
2021/05/14 04:50:53;;;;;;;10.70;6.08;;;;;;;12.70;65.46;99106.40;1694336;83;25749;-77
2021/05/14 04:53:27;;;;;;;8.28;5.55;;;;;;;12.71;65.44;99106.67;1686133;81;27536;-76
2021/05/14 04:55:49;;;;;;;8.33;5.62;;;;;;;12.73;65.41;99105.39;1699909;82;25684;-76
2021/05/14 04:58:16;;;;;;;7.95;5.78;;;;;;;12.75;65.51;99111.34;1657034;83;25636;-79
2021/05/14 05:00:43;;;;;;;7.55;5.78;;;;;;;12.75;65.94;99115.37;1683974;84;25654;-76
2021/05/14 05:03:10;;;;;;;10.32;6.10;;;;;;;12.73;66.15;99111.28;1701076;81;26294;-76
2021/05/14 05:05:37;;;;;;;10.88;5.33;;;;;;;12.72;66.04;99111.01;1692706;83;27384;-75
2021/05/14 05:08:05;;;;;;;7.83;4.95;;;;;;;12.73;66.16;99108.59;1671993;81;25770;-76
2021/05/14 05:10:32;;;;;;;9.38;5.95;;;;;;;12.76;66.53;99108.13;1738850;80;25816;-75
2021/05/14 05:12:59;;;;;;;8.98;5.67;;;;;;;12.78;66.27;99106.84;1719545;80;25970;-77
2021/05/14 05:15:26;;;;;;;10.25;6.15;;;;;;;12.79;66.34;99110.33;1681145;81;25814;-76
2021/05/14 05:17:53;;;;;;;12.88;6.62;;;;;;;12.82;66.35;99116.06;1723938;80;27379;-77
2021/05/14 05:20:21;;;;;;;8.25;6.22;;;;;;;12.87;66.34;99115.36;1755181;80;25600;-76
2021/05/14 05:22:48;;;;;;;10.38;6.47;;;;;;;12.93;66.50;99119.26;1708827;82;26459;-76
2021/05/14 05:25:15;;;;;;;12.10;6.72;;;;;;;12.99;66.43;99121.51;1710438;80;26331;-75
2021/05/14 05:27:42;;;;;;;10.13;6.72;;;;;;;13.04;66.29;99118.42;1668243;83;25745;-76
2021/05/14 05:30:10;;;;;;;11.63;6.67;;;;;;;13.07;66.35;99108.55;1718524;81;27534;-76
2021/05/14 05:32:37;;;;;;;12.07;6.50;;;;;;;13.13;66.25;99123.72;1689808;83;25759;-76
2021/05/14 05:35:06;;;;;;;8.95;5.83;;;;;;;13.19;66.47;99121.96;1666268;82;25910;-76
2021/05/14 05:37:33;;;;;;;11.53;6.22;;;;;;;13.17;66.45;99117.35;1665292;81;25676;-75
2021/05/14 05:40:00;;;;;;;9.73;5.70;;;;;;;13.15;66.76;99117.56;1683381;82;26352;-75
2021/05/14 05:42:27;;;;;;;11.43;7.05;;;;;;;13.18;66.53;99111.42;1659483;82;27377;-77
2021/05/14 05:44:54;;;;;;;10.50;6.78;;;;;;;13.24;66.69;99123.38;1690546;82;25649;-75
2021/05/14 05:47:21;;;;;;;11.43;8.00;;;;;;;13.29;66.51;99122.14;1715102;81;25722;-75
2021/05/14 05:49:48;;;;;;;8.75;7.75;;;;;;;13.36;66.16;99114.76;1631891;81;25755;-78
2021/05/14 05:52:15;;;;;;;8.83;7.20;;;;;;;13.42;65.72;99122.38;1699033;83;25755;-77
2021/05/14 05:54:42;;;;;;;13.70;7.12;;;;;;;13.48;65.45;99125.45;1682674;84;27541;-75
2021/05/14 05:57:09;;;;;;;11.40;7.15;;;;;;;13.51;65.69;99126.33;1739316;80;25822;-75
2021/05/14 05:59:38;;;;;;;14.47;7.78;;;;;;;13.53;66.04;99133.63;1668982;83;26309;-76
2021/05/14 06:02:05;;;;;;;12.35;7.47;;;;;;;13.56;66.10;99133.13;1681768;83;25948;-77
2021/05/14 06:04:33;;;;;;;12.45;8.03;;;;;;;13.64;66.13;99136.80;1700573;83;25687;-78
2021/05/14 06:07:00;;;;;;;9.83;6.60;;;;;;;13.69;65.96;99133.66;1719460;81;27369;-76
2021/05/14 06:09:27;;;;;;;9.65;6.62;;;;;;;13.71;65.89;99129.36;1718655;80;25701;-77
2021/05/14 06:11:54;;;;;;;10.03;6.62;;;;;;;13.72;65.96;99127.80;1678272;81;25683;-74
2021/05/14 06:14:21;;;;;;;13.85;7.30;;;;;;;13.77;65.74;99132.45;1717505;81;25605;-76
2021/05/14 06:16:48;;;;;;;8.78;6.67;;;;;;;13.84;65.70;99137.95;1750612;80;25649;-76
2021/05/14 06:19:20;;;;;;;12.73;7.15;;;;;;;13.93;65.88;99139.20;1700889;81;27360;-76
2021/05/14 06:21:49;;;;;;;9.78;7.20;;;;;;;14.04;65.97;99140.70;1661761;83;26362;-76
2021/05/14 06:24:17;;;;;;;12.70;7.50;;;;;;;14.13;65.24;99140.06;1708673;83;25710;-76
2021/05/14 06:26:47;;;;;;;11.35;7.10;;;;;;;14.18;65.15;99137.98;1721727;81;25639;-76
2021/05/14 06:29:15;;;;;;;13.65;7.33;;;;;;;14.25;65.13;99142.13;1652140;83;25733;-77
2021/05/14 06:31:42;;;;;;;6.75;5.72;;;;;;;14.35;65.53;99138.83;1680739;83;27563;-77
2021/05/14 06:34:09;;;;;;;14.10;6.67;;;;;;;14.43;65.47;99137.88;1677338;81;25733;-76
2021/05/14 06:36:36;;;;;;;13.53;7.62;;;;;;;14.50;65.44;99138.50;1724036;81;25690;-77
2021/05/14 06:39:04;;;;;;;12.82;7.08;;;;;;;14.53;65.50;99139.89;1659833;81;26429;-76
2021/05/14 06:41:31;;;;;;;9.63;6.75;;;;;;;14.55;65.27;99137.77;1678395;80;25746;-77
2021/05/14 06:43:58;;;;;;;10.03;6.75;;;;;;;14.58;65.64;99136.72;1690467;83;27658;-75
2021/05/14 06:46:25;;;;;;;15.63;6.55;;;;;;;14.58;65.23;99144.81;1708414;82;25822;-76
2021/05/14 06:48:53;;;;;;;8.35;5.90;;;;;;;14.62;65.57;99145.97;1632781;83;25865;-76
2021/05/14 06:51:19;;;;;;;8.75;6.03;;;;;;;14.69;65.47;99145.80;1681272;84;26204;-77
2021/05/14 06:53:51;;;;;;;9.63;5.75;;;;;;;14.75;65.17;99146.15;1715241;81;25637;-77
2021/05/14 06:56:18;;;;;;;8.25;5.78;;;;;;;14.87;66.21;99144.67;1703887;81;27394;-76
2021/05/14 06:58:45;;;;;;;10.98;6.55;;;;;;;15.04;65.55;99146.78;1724705;80;25734;-76
2021/05/14 07:01:12;;;;;;;10.45;6.22;;;;;;;15.13;65.21;99147.98;1660467;83;25751;-76
2021/05/14 07:03:39;;;;;;;11.20;6.60;;;;;;;15.27;65.54;99150.04;1692496;82;25918;-77
2021/05/14 07:06:06;;;;;;;13.30;6.75;;;;;;;15.42;65.09;99148.87;1717257;81;26050;-76
2021/05/14 07:08:33;;;;;;;10.25;6.83;;;;;;;15.60;64.96;99151.80;1672101;80;27351;-77
2021/05/14 07:11:00;;;;;;;9.50;6.47;;;;;;;15.79;65.01;99154.42;1711592;80;25917;-75
2021/05/14 07:13:27;;;;;;;10.85;7.72;;;;;;;15.95;64.37;99160.79;1735200;81;25688;-77
2021/05/14 07:15:54;;;;;;;14.38;8.40;;;;;;;16.08;64.37;99161.16;1713981;82;26184;-77
2021/05/14 07:18:21;;;;;;;9.95;7.25;;;;;;;16.24;64.02;99159.41;1658431;84;25649;-75
2021/05/14 07:20:48;;;;;;;10.43;7.37;;;;;;;16.35;63.30;99155.72;1693678;82;28015;-74
2021/05/14 07:23:15;;;;;;;13.00;6.97;;;;;;;16.49;62.94;99160.13;1704020;82;25739;-74
2021/05/14 07:25:42;;;;;;;10.43;7.28;;;;;;;16.59;63.32;99160.25;1696073;81;25668;-75
2021/05/14 07:28:10;;;;;;;9.55;7.22;;;;;;;16.63;62.60;99162.17;1622899;83;26159;-77
2021/05/14 07:30:37;;;;;;;9.50;7.45;;;;;;;16.68;62.73;99162.19;1687887;83;25923;-76
2021/05/14 07:33:04;;;;;;;12.35;7.12;;;;;;;16.75;62.46;99167.36;1690423;83;27629;-76
2021/05/14 07:35:31;;;;;;;13.30;8.25;;;;;;;16.79;62.36;99171.17;1723382;82;25775;-76
2021/05/14 07:37:58;;;;;;;13.10;7.90;;;;;;;16.89;62.67;99174.75;1634292;82;25777;-76
2021/05/14 07:40:25;;;;;;;13.15;7.90;;;;;;;17.03;62.74;99171.05;1673212;83;25655;-77
2021/05/14 07:42:52;;;;;;;15.30;7.83;;;;;;;17.11;62.20;99173.80;1689250;82;26468;-76
2021/05/14 07:45:20;;;;;;;12.18;7.35;;;;;;;17.17;61.95;99174.89;1713106;82;27393;-77
2021/05/14 07:47:47;;;;;;;12.47;9.08;;;;;;;17.21;61.80;99176.02;1656886;83;25741;-78
2021/05/14 07:50:14;;;;;;;12.40;7.53;;;;;;;17.24;61.63;99176.83;1685852;83;25703;-76
2021/05/14 07:52:41;;;;;;;13.85;8.90;;;;;;;17.28;61.74;99178.48;1689915;83;25760;-75
2021/05/14 07:55:09;;;;;;;15.85;8.35;;;;;;;17.37;62.12;99174.16;1713956;82;25618;-77
2021/05/14 07:57:36;;;;;;;14.43;8.10;;;;;;;17.50;61.75;99175.06;1656580;83;27251;-77
2021/05/14 08:00:06;;;;;;;11.97;8.70;;;;;;;17.62;61.23;99175.09;1664690;82;25973;-77
2021/05/14 08:02:33;;;;;;;12.50;8.85;;;;;;;17.77;61.66;99174.31;1693940;82;25741;-77
2021/05/14 08:05:00;;;;;;;19.15;8.85;;;;;;;17.81;60.53;99177.31;1694656;82;25698;-77
2021/05/14 08:07:27;;;;;;;17.60;9.33;;;;;;;17.81;61.13;99179.50;1658927;83;26426;-77
2021/05/14 08:09:54;;;;;;;13.70;8.65;;;;;;;17.88;60.62;99178.67;1685520;83;27528;-77
2021/05/14 08:12:22;;;;;;;15.00;9.15;;;;;;;18.05;61.01;99179.23;1709336;82;25837;-76
2021/05/14 08:14:49;;;;;;;16.80;8.83;;;;;;;18.11;60.09;99175.45;1717273;81;25610;-77
2021/05/14 08:17:16;;;;;;;12.50;8.53;;;;;;;18.21;60.06;99176.01;1705674;83;25665;-77
2021/05/14 08:19:43;;;;;;;13.43;8.73;;;;;;;18.25;60.07;99180.63;1714356;82;25740;-77
2021/05/14 08:22:10;;;;;;;14.43;8.45;;;;;;;18.33;59.84;99184.14;1645847;82;27573;-77
2021/05/14 08:24:37;;;;;;;17.75;7.92;;;;;;;18.42;59.76;99192.01;1719621;82;25798;-75
2021/05/14 08:27:05;;;;;;;12.68;8.53;;;;;;;18.44;59.41;99191.22;1686923;83;25291;-77
2021/05/14 08:29:32;;;;;;;16.52;9.10;;;;;;;18.50;59.37;99192.02;1686913;83;26376;-78
2021/05/14 08:31:59;;;;;;;12.03;9.63;;;;;;;18.59;59.00;99193.64;1701242;81;25642;-76
2021/05/14 08:34:26;;;;;;;18.85;10.48;;;;;;;18.64;58.78;99189.58;1728543;81;27389;-77
2021/05/14 08:36:53;;;;;;;17.12;10.93;;;;;;;18.62;58.36;99189.86;1686838;81;25761;-76
2021/05/14 08:39:20;;;;;;;14.78;10.13;;;;;;;18.66;58.86;99189.59;1700799;81;26314;-77
2021/05/14 08:41:48;;;;;;;16.23;10.53;;;;;;;18.72;58.44;99186.31;1726832;81;25997;-77
2021/05/14 08:44:15;;;;;;;15.85;10.13;;;;;;;18.79;58.67;99193.09;1739240;81;25682;-77
2021/05/14 08:46:44;;;;;;;16.32;10.05;;;;;;;18.92;58.97;99194.42;1695377;80;27378;-77
2021/05/14 08:49:11;;;;;;;14.95;10.25;;;;;;;19.04;58.49;99194.92;1687967;81;25290;-78
2021/05/14 08:51:38;;;;;;;13.48;9.68;;;;;;;19.17;58.56;99198.42;1676350;81;25949;-77
2021/05/14 08:54:07;;;;;;;11.50;9.20;;;;;;;19.24;57.62;99195.70;1753707;80;25963;-76
2021/05/14 08:56:34;;;;;;;15.63;11.10;;;;;;;19.27;57.84;99201.66;1695113;81;25681;-76
2021/05/14 08:59:01;;;;;;;14.30;10.10;;;;;;;19.38;57.68;99197.83;1709979;83;27523;-76
2021/05/14 09:01:28;;;;;;;16.23;9.58;;;;;;;19.46;57.25;99194.56;1730782;81;25990;-77
2021/05/14 09:04:02;;;;;;;11.60;9.53;;;;;;;19.45;57.49;99199.70;1737362;81;25641;-77
2021/05/14 09:06:37;;;;;;;14.70;10.10;;;;;;;19.48;57.30;99201.31;1688278;83;25791;-77
2021/05/14 09:09:08;;;;;;;13.80;9.33;;;;;;;19.44;56.90;99207.60;1669231;83;26452;-77
2021/05/14 09:11:45;;;;;;;11.50;9.33;;;;;;;19.42;56.63;99203.00;1713504;82;28383;-77
2021/05/14 09:14:44;;;;;;;15.58;10.88;;;;;;;19.47;56.95;99197.52;1737257;81;25712;-76
2021/05/14 09:17:16;;;;;;;15.95;11.20;;;;;;;19.52;56.30;99205.12;1712449;83;25523;-76
2021/05/14 09:19:46;;;;;;;15.03;11.00;;;;;;;19.51;56.36;99206.73;1687119;82;25555;-76
2021/05/14 09:22:23;;;;;;;17.50;11.15;;;;;;;19.55;56.70;99204.55;1719843;81;25808;-76
2021/05/14 09:25:01;;;;;;;12.98;10.23;;;;;;;19.64;56.30;99203.42;1719994;81;27343;-78
2021/05/14 09:27:36;;;;;;;12.58;9.83;;;;;;;19.71;56.14;99209.37;1699197;81;25790;-76
2021/05/14 09:30:09;;;;;;;15.28;10.93;;;;;;;19.75;56.46;99210.44;1737522;80;25623;-76
2021/05/14 09:32:38;;;;;;;18.77;11.48;;;;;;;19.76;55.52;99212.07;1746153;80;26313;-77
2021/05/14 09:35:08;;;;;;;11.93;10.53;;;;;;;19.75;55.71;99209.89;1715838;81;25881;-76
2021/05/14 09:37:51;;;;;;;15.43;11.15;;;;;;;19.79;55.99;99212.31;1696501;81;27560;-75
2021/05/14 09:40:24;;;;;;;13.40;11.00;;;;;;;19.86;57.26;99215.55;1674989;83;25786;-77
2021/05/14 09:43:00;;;;;;;14.85;10.95;;;;;;;19.95;56.03;99217.91;1724697;81;25670;-77
2021/05/14 09:45:29;;;;;;;14.83;11.48;;;;;;;19.98;55.86;99224.70;1712019;82;25812;-77
2021/05/14 09:48:14;;;;;;;13.85;10.40;;;;;;;20.00;55.99;99217.89;1702861;81;25882;-77
2021/05/14 09:50:36;;;;;;;16.50;11.70;;;;;;;20.10;56.13;99223.01;1706073;83;26761;-77
2021/05/14 09:53:18;;;;;;;13.90;11.88;;;;;;;20.18;55.61;99226.48;1736253;81;25768;-76
2021/05/14 09:55:58;;;;;;;14.98;11.48;;;;;;;20.21;55.10;99230.83;1709581;83;25784;-76
2021/05/14 09:58:22;;;;;;;16.23;11.25;;;;;;;20.23;55.65;99230.00;1695444;81;25613;-77
2021/05/14 10:00:49;;;;;;;14.38;10.50;;;;;;;20.25;54.26;99225.66;1695803;81;25740;-77
2021/05/14 10:03:22;;;;;;;14.07;10.72;;;;;;;20.24;53.49;99228.09;1694686;81;27586;-77
2021/05/14 10:05:51;;;;;;;13.18;11.03;;;;;;;20.16;52.78;99222.69;1696276;81;25787;-78
2021/05/14 10:08:20;;;;;;;15.60;10.75;;;;;;;20.19;53.88;99226.77;1706330;83;25275;-76
2021/05/14 10:10:48;;;;;;;16.82;10.08;;;;;;;20.23;53.45;99233.29;1690129;83;25743;-77
2021/05/14 10:13:15;;;;;;;10.82;9.08;;;;;;;20.30;54.17;99231.86;1743883;81;25690;-78
2021/05/14 10:15:42;;;;;;;10.72;9.45;;;;;;;20.42;54.34;99230.16;1705286;81;27805;-76
2021/05/14 10:18:18;;;;;;;11.40;10.15;;;;;;;20.51;53.01;99226.53;1713955;80;25804;-77
2021/05/14 10:20:48;;;;;;;15.48;10.63;;;;;;;20.53;52.77;99232.49;1659690;83;25667;-76
2021/05/14 10:23:17;;;;;;;13.90;10.38;;;;;;;20.46;52.82;99227.12;1691374;83;26253;-78
2021/05/14 10:25:49;;;;;;;13.80;10.68;;;;;;;20.46;53.06;99229.84;1699852;81;26328;-77
2021/05/14 10:28:24;;;;;;;16.73;10.98;;;;;;;20.50;53.02;99222.73;1717701;80;27509;-77
2021/05/14 10:31:09;;;;;;;16.93;10.72;;;;;;;20.55;52.78;99231.66;1674344;83;25690;-78
2021/05/14 10:33:54;;;;;;;17.23;10.55;;;;;;;20.55;52.43;99226.79;1723244;81;25676;-76
2021/05/14 10:36:32;;;;;;;15.45;9.70;;;;;;;20.65;53.37;99226.16;1725178;80;26057;-77
2021/05/14 10:39:17;;;;;;;17.52;12.00;;;;;;;20.77;52.61;99225.76;1751362;80;25912;-78
2021/05/14 10:41:53;;;;;;;18.92;13.45;;;;;;;20.82;52.83;99223.00;1672342;83;27319;-77
2021/05/14 10:44:42;;;;;;;20.95;13.70;;;;;;;20.88;53.28;99222.39;1736985;81;25688;-76
2021/05/14 10:47:29;;;;;;;16.25;13.22;;;;;;;20.93;54.27;99231.34;1692116;81;25664;-77
2021/05/14 10:50:03;;;;;;;20.85;13.05;;;;;;;20.93;52.51;99229.98;1727422;81;25819;-78
2021/05/14 10:52:31;;;;;;;20.23;12.93;;;;;;;20.91;52.33;99229.45;1715945;81;26283;-77
2021/05/14 10:54:58;;;;;;;17.37;13.05;;;;;;;20.84;52.04;99230.33;1716896;82;28094;-77
2021/05/14 10:57:47;;;;;;;20.60;11.75;;;;;;;20.84;51.85;99228.15;1721159;81;26288;-78
2021/05/14 11:00:30;;;;;;;16.17;10.32;;;;;;;20.88;51.88;99228.66;1680522;81;26335;-77
2021/05/14 11:03:18;;;;;;;11.88;10.13;;;;;;;20.92;51.47;99229.70;1691391;83;25628;-78
2021/05/14 11:05:50;;;;;;;15.48;10.85;;;;;;;21.01;51.01;99228.53;1705969;82;26088;-76
2021/05/14 11:08:37;;;;;;;13.50;9.55;;;;;;;21.06;51.65;99218.98;1672329;83;28025;-79
2021/05/14 11:11:10;;;;;;;14.98;10.93;;;;;;;21.12;51.33;99215.92;1678164;81;25806;-77
2021/05/14 11:13:48;;;;;;;18.50;13.13;;;;;;;21.16;51.64;99216.14;1666017;81;25631;-76
2021/05/14 11:16:39;;;;;;;18.00;13.03;;;;;;;21.20;51.07;99214.47;1758042;80;25639;-77
2021/05/14 11:19:29;;;;;;;16.42;13.75;;;;;;;21.21;52.05;99219.61;1701080;81;25669;-78
2021/05/14 11:22:05;;;;;;;19.45;14.23;;;;;;;21.26;51.33;99216.84;1696488;80;27416;-76
2021/05/14 11:24:40;;;;;;;20.02;15.20;;;;;;;21.31;52.17;99213.25;1672977;81;25581;-78
2021/05/14 11:27:29;;;;;;;15.75;13.03;;;;;;;21.32;52.01;99218.98;1760526;80;25742;-77
2021/05/14 11:29:59;;;;;;;17.85;13.28;;;;;;;21.29;51.07;99221.73;1722828;81;26209;-78
2021/05/14 11:32:39;;;;;;;22.57;17.47;;;;;;;21.39;51.69;99222.96;1691159;83;25627;-77
2021/05/14 11:35:30;;;;;;;23.75;18.02;;;;;;;21.45;51.29;99225.88;1679162;83;26796;-77
2021/05/14 11:38:01;;;;;;;20.27;17.42;;;;;;;21.44;50.76;99230.27;1730354;81;25779;-75
2021/05/14 11:40:34;;;;;;;20.72;18.12;;;;;;;21.43;52.57;99232.17;1686798;83;25244;-79
2021/05/14 11:43:14;;;;;;;26.00;19.20;;;;;;;21.44;52.17;99229.72;1676787;82;25806;-77